Time;durP1;ratioP1;P1;durP2;ratioP2;P2;SDS_P1;SDS_P2;PMS_P1;PMS_P2;Temp;Humidity;BMP_temperature;BMP_pressure;BME280_temperature;BME280_humidity;BME280_pressure;Samples;Min_cycle;Max_cycle;Signal;HPM_P1;HPM_P2
2022/04/14 00:00:55;;;;;;;4.43;0.82;;;21.50;72.80;;;;;;4118475;28;20218;-56
2022/04/14 00:02:57;;;;;;;5.07;1.15;;;21.50;72.70;;;;;;4111032;28;20103;-58
2022/04/14 00:04:59;;;;;;;3.67;0.95;;;21.50;72.60;;;;;;4112401;28;20843;-59
2022/04/14 00:07:03;;;;;;;5.18;1.27;;;21.60;72.50;;;;;;4133918;28;20534;-60
2022/04/14 00:09:04;;;;;;;;;;;21.60;72.60;;;;;;4117442;28;22050;-62
2022/04/14 00:11:18;;;;;;;3.58;0.85;;;21.60;72.50;;;;;;4113912;28;20627;-61
2022/04/14 00:13:20;;;;;;;14.68;1.25;;;21.60;73.10;;;;;;4132457;28;20127;-57
2022/04/14 00:15:23;;;;;;;2.20;0.60;;;21.60;72.40;;;;;;4113977;28;20109;-57
2022/04/14 00:17:25;;;;;;;2.30;0.82;;;21.60;72.30;;;;;;4119613;28;20060;-58
2022/04/14 00:19:28;;;;;;;0.73;0.45;;;21.70;72.40;;;;;;4119400;28;20678;-60
2022/04/14 00:21:30;;;;;;;2.05;0.75;;;21.70;72.40;;;;;;4134078;28;20629;-59
2022/04/14 00:23:32;;;;;;;1.40;0.77;;;21.70;72.40;;;;;;4119285;28;20053;-60
2022/04/14 00:25:34;;;;;;;1.52;0.65;;;21.70;72.30;;;;;;4124475;28;20060;-60
2022/04/14 00:27:36;;;;;;;3.15;0.68;;;21.70;72.20;;;;;;4118147;28;20164;-59
2022/04/14 00:29:38;;;;;;;2.10;0.60;;;21.70;72.10;;;;;;4115317;28;20057;-55
2022/04/14 00:31:41;;;;;;;5.28;0.68;;;21.70;72.20;;;;;;4112457;28;20240;-56
2022/04/14 00:33:43;;;;;;;4.50;0.70;;;21.80;72.20;;;;;;4137777;28;21754;-58
2022/04/14 00:35:45;;;;;;;3.20;0.80;;;21.80;72.00;;;;;;4118042;28;20740;-58
2022/04/14 00:37:47;;;;;;;3.25;0.80;;;21.80;72.00;;;;;;4139825;28;20044;-59
2022/04/14 00:39:51;;;;;;;1.25;0.60;;;21.90;72.10;;;;;;4110317;28;20049;-59
2022/04/14 00:41:52;;;;;;;;;;;21.90;71.90;;;;;;4107225;28;20054;-57
2022/04/14 00:43:55;;;;;;;2.95;0.98;;;21.90;71.40;;;;;;4121892;28;19929;-58
2022/04/14 00:46:01;;;;;;;2.33;1.02;;;21.90;71.30;;;;;;4110861;28;20054;-58
2022/04/14 00:48:04;;;;;;;1.45;0.70;;;21.90;71.50;;;;;;4145304;28;20063;-59
2022/04/14 00:50:07;;;;;;;3.33;0.80;;;21.90;71.50;;;;;;4117231;28;20456;-59
2022/04/14 00:52:09;;;;;;;2.33;0.70;;;21.90;71.70;;;;;;4127749;28;20283;-58
2022/04/14 00:54:12;;;;;;;0.80;0.73;;;21.90;71.60;;;;;;4130483;28;20044;-57
2022/04/14 00:56:14;;;;;;;1.23;0.70;;;22.00;71.70;;;;;;4132434;28;20068;-61
2022/04/14 00:58:17;;;;;;;3.77;0.70;;;22.00;71.70;;;;;;4145823;28;20155;-58
2022/04/14 01:00:19;;;;;;;2.30;0.70;;;22.00;71.70;;;;;;4146146;28;20338;-60
2022/04/14 01:02:21;;;;;;;1.83;0.65;;;22.00;71.70;;;;;;4120786;28;20061;-60
2022/04/14 01:04:25;;;;;;;1.38;0.55;;;22.00;71.70;;;;;;4131391;28;20053;-60
2022/04/14 01:06:30;;;;;;;2.85;1.27;;;22.10;71.60;;;;;;4116092;28;20039;-57
2022/04/14 01:09:20;;;;;;;2.78;0.65;;;22.10;71.60;;;;;;4092986;28;20469;-60
2022/04/14 01:11:30;;;;;;;3.83;0.90;;;22.10;71.40;;;;;;4124459;28;20450;-60
2022/04/14 01:13:36;;;;;;;0.75;0.50;;;22.10;71.10;;;;;;4094988;28;20669;-59
2022/04/14 01:15:39;;;;;;;2.53;0.70;;;22.10;70.90;;;;;;4113373;28;20572;-59
2022/04/14 01:17:42;;;;;;;8.18;1.63;;;22.10;70.70;;;;;;4125895;28;20033;-63
2022/04/14 01:19:45;;;;;;;7.53;1.08;;;22.10;71.10;;;;;;4105123;28;20295;-58
2022/04/14 01:22:01;;;;;;;4.80;0.90;;;22.10;71.10;;;;;;4122076;28;20061;-57
2022/04/14 01:24:07;;;;;;;3.60;0.82;;;22.10;70.90;;;;;;4100195;28;20430;-59
2022/04/14 01:26:10;;;;;;;3.08;1.00;;;22.00;70.70;;;;;;4122386;28;20535;-60
2022/04/14 01:28:12;;;;;;;5.63;1.17;;;22.10;70.70;;;;;;4129062;28;20088;-60
2022/04/14 01:30:17;;;;;;;4.18;1.00;;;22.00;70.80;;;;;;4111445;28;21604;-59
2022/04/14 01:32:21;;;;;;;2.08;0.77;;;22.00;70.90;;;;;;4085566;28;20080;-58
2022/04/14 01:34:25;;;;;;;2.25;0.90;;;22.00;71.10;;;;;;4087715;28;20136;-59
2022/04/14 01:36:28;;;;;;;3.47;1.17;;;22.00;71.80;;;;;;4089463;28;20054;-61
2022/04/14 01:38:30;;;;;;;5.78;1.42;;;22.00;72.10;;;;;;4108789;28;20056;-61
2022/04/14 01:40:32;;;;;;;6.68;1.85;;;22.10;72.20;;;;;;4098746;28;20134;-61
2022/04/14 01:42:34;;;;;;;5.82;1.23;;;22.10;72.40;;;;;;4084747;28;20060;-61
2022/04/14 01:44:37;;;;;;;4.30;1.02;;;22.10;72.40;;;;;;4109908;28;20419;-61
2022/04/14 01:46:41;;;;;;;4.22;1.00;;;22.20;72.30;;;;;;4105004;28;21924;-60
2022/04/14 01:48:43;;;;;;;2.95;0.88;;;22.20;72.40;;;;;;4102561;28;20057;-62
2022/04/14 01:50:45;;;;;;;9.23;1.17;;;22.20;72.30;;;;;;4106449;28;20834;-62
2022/04/14 01:52:50;;;;;;;6.18;1.33;;;22.20;72.40;;;;;;4110617;28;20176;-62
2022/04/14 01:54:53;;;;;;;3.88;1.38;;;22.20;72.50;;;;;;4089345;28;21644;-62
2022/04/14 01:56:56;;;;;;;10.43;0.98;;;22.20;72.50;;;;;;4088608;28;20050;-62
2022/04/14 01:58:59;;;;;;;1.17;0.50;;;22.30;72.50;;;;;;4091497;28;20124;-62
2022/04/14 02:01:04;;;;;;;3.85;0.98;;;22.30;72.50;;;;;;4095349;28;20460;-61
2022/04/14 02:03:07;;;;;;;5.85;0.68;;;22.30;72.40;;;;;;4087812;28;20072;-61
2022/04/14 02:05:09;;;;;;;4.03;0.80;;;22.40;72.60;;;;;;4103386;28;20077;-58
2022/04/14 02:07:11;;;;;;;4.78;0.88;;;22.40;72.40;;;;;;4108509;28;20115;-61
2022/04/14 02:09:14;;;;;;;6.15;0.80;;;22.40;72.40;;;;;;4109475;28;20054;-61
2022/04/14 02:11:16;;;;;;;2.85;0.75;;;22.40;72.30;;;;;;4104207;28;20124;-60
2022/04/14 02:13:18;;;;;;;2.75;0.90;;;22.50;72.40;;;;;;4122354;28;20057;-59
2022/04/14 02:15:20;;;;;;;2.78;0.57;;;22.50;72.40;;;;;;4111088;28;20077;-58
2022/04/14 02:17:22;;;;;;;1.83;0.68;;;22.50;72.30;;;;;;4121629;28;20853;-59
2022/04/14 02:19:25;;;;;;;2.30;0.70;;;22.50;72.30;;;;;;4121866;28;20053;-59
2022/04/14 02:21:27;;;;;;;3.00;0.80;;;22.50;72.30;;;;;;4125862;28;20060;-59
2022/04/14 02:23:32;;;;;;;1.63;0.35;;;22.60;72.20;;;;;;4109147;28;20063;-61
2022/04/14 02:25:37;;;;;;;5.18;0.70;;;22.60;72.20;;;;;;4105264;28;20902;-60
2022/04/14 02:27:39;;;;;;;2.15;0.50;;;22.60;72.20;;;;;;4105622;28;20053;-57
2022/04/14 02:29:43;;;;;;;1.08;0.40;;;22.60;72.20;;;;;;4129381;28;20428;-60
2022/04/14 02:31:45;;;;;;;0.80;0.52;;;22.60;72.20;;;;;;4112155;28;20480;-59
2022/04/14 02:33:47;;;;;;;1.98;0.52;;;22.70;72.30;;;;;;4105069;28;20049;-55
2022/04/14 02:35:50;;;;;;;1.13;0.50;;;22.60;72.10;;;;;;4106923;28;20054;-58
2022/04/14 02:37:52;;;;;;;2.33;0.67;;;22.70;72.00;;;;;;4111658;28;20111;-58
2022/04/14 02:39:54;;;;;;;1.20;0.40;;;22.70;72.00;;;;;;4124701;28;21022;-55
2022/04/14 02:42:02;;;;;;;1.33;0.30;;;22.70;72.00;;;;;;4125368;28;20081;-58
2022/04/14 02:44:04;;;;;;;2.35;0.60;;;22.70;72.00;;;;;;4127094;28;20063;-59
2022/04/14 02:46:10;;;;;;;1.60;0.40;;;22.70;71.90;;;;;;4116402;28;20076;-58
2022/04/14 02:48:12;;;;;;;1.45;0.40;;;22.70;72.40;;;;;;4117889;28;20072;-60
2022/04/14 02:50:15;;;;;;;0.63;0.45;;;22.80;72.00;;;;;;4094899;28;20050;-56
2022/04/14 02:52:24;;;;;;;0.60;0.40;;;22.80;71.70;;;;;;4111790;28;20543;-57
2022/04/14 02:54:26;;;;;;;1.25;0.45;;;22.80;71.50;;;;;;4096899;28;20049;-53
2022/04/14 02:56:28;;;;;;;1.77;0.70;;;22.80;71.20;;;;;;4117935;28;20068;-53
2022/04/14 02:58:34;;;;;;;0.40;0.32;;;22.80;71.10;;;;;;4112445;28;20081;-53
2022/04/14 03:00:38;;;;;;;0.80;0.65;;;22.80;71.10;;;;;;4111131;28;20091;-54
2022/04/14 03:02:41;;;;;;;1.65;0.63;;;22.70;70.90;;;;;;4110560;28;20181;-50
2022/04/14 03:04:47;;;;;;;1.83;0.70;;;22.70;70.60;;;;;;4102633;28;20200;-53
2022/04/14 03:06:49;;;;;;;1.98;0.70;;;22.70;70.70;;;;;;4100549;28;20053;-54
2022/04/14 03:08:51;;;;;;;1.92;0.70;;;22.70;70.60;;;;;;4094868;28;20058;-58
2022/04/14 03:10:55;;;;;;;1.90;1.00;;;22.70;71.10;;;;;;4113979;28;20123;-59
2022/04/14 03:12:57;;;;;;;;;;;22.70;71.30;;;;;;4104728;28;20093;-55
2022/04/14 03:15:03;;;;;;;2.33;0.80;;;22.70;71.50;;;;;;4114013;28;19987;-53
2022/04/14 03:17:11;;;;;;;2.15;0.57;;;22.80;71.90;;;;;;4112187;28;20114;-59
2022/04/14 03:19:16;;;;;;;1.33;0.80;;;22.80;72.00;;;;;;4112465;28;20556;-51
2022/04/14 03:21:18;;;;;;;1.42;0.52;;;22.80;72.00;;;;;;4113564;28;20127;-57
2022/04/14 03:23:20;;;;;;;4.05;0.85;;;22.80;72.00;;;;;;4118429;28;20049;-54
2022/04/14 03:25:23;;;;;;;1.77;0.57;;;22.80;71.90;;;;;;4112402;28;21842;-56
2022/04/14 03:27:25;;;;;;;2.47;0.93;;;22.80;71.80;;;;;;4096916;28;20053;-55
2022/04/14 03:29:32;;;;;;;5.10;0.65;;;22.90;71.80;;;;;;4101362;28;20051;-57
2022/04/14 03:31:34;;;;;;;1.02;0.77;;;22.90;71.60;;;;;;4137933;28;20115;-57
2022/04/14 03:33:37;;;;;;;3.23;1.23;;;22.90;71.50;;;;;;4112869;28;22292;-56
2022/04/14 03:35:40;;;;;;;4.97;0.75;;;22.90;71.40;;;;;;4132366;28;20069;-60
2022/04/14 03:38:13;;;;;;;12.52;1.08;;;22.90;71.30;;;;;;4112499;28;20049;-58
2022/04/14 03:40:15;;;;;;;2.95;0.50;;;23.00;71.30;;;;;;4089809;28;20068;-56
2022/04/14 03:42:26;;;;;;;3.40;0.60;;;23.00;71.20;;;;;;4113270;28;20137;-59
2022/04/14 03:44:37;;;;;;;1.85;0.70;;;23.00;71.00;;;;;;4112803;28;20077;-60
2022/04/14 03:47:04;;;;;;;4.82;0.90;;;23.10;71.10;;;;;;4135466;28;20061;-61
2022/04/14 03:49:08;;;;;;;1.30;0.50;;;23.10;71.00;;;;;;4103263;28;20038;-58
2022/04/14 03:51:18;;;;;;;;;;;23.10;71.00;;;;;;4130347;28;20049;-61
2022/04/14 03:53:22;;;;;;;2.47;0.70;;;23.10;71.00;;;;;;4128179;28;20042;-60
2022/04/14 03:55:27;;;;;;;1.05;0.90;;;23.20;70.80;;;;;;4128575;28;20152;-61
2022/04/14 03:57:29;;;;;;;0.90;0.57;;;23.30;70.90;;;;;;4131526;28;20053;-58
2022/04/14 03:59:32;;;;;;;3.20;0.60;;;23.30;70.90;;;;;;4119481;28;20045;-55
2022/04/14 04:01:43;;;;;;;1.60;0.70;;;23.30;70.70;;;;;;4128139;28;20060;-60
2022/04/14 04:03:46;;;;;;;0.52;0.40;;;23.40;70.60;;;;;;4107773;28;20439;-59
2022/04/14 04:05:56;;;;;;;2.75;0.60;;;23.50;70.60;;;;;;4113164;28;20189;-60
2022/04/14 04:07:59;;;;;;;2.78;0.52;;;23.50;70.50;;;;;;4113740;28;20053;-57
2022/04/14 04:10:02;;;;;;;3.42;0.90;;;23.60;70.40;;;;;;4117632;28;20131;-52
2022/04/14 04:12:08;;;;;;;0.55;0.40;;;23.70;70.30;;;;;;4114300;28;20066;-57
2022/04/14 04:14:11;;;;;;;1.33;0.63;;;23.70;70.20;;;;;;4111627;28;20097;-55
2022/04/14 04:16:20;;;;;;;1.95;0.60;;;23.80;70.10;;;;;;4113384;28;20065;-54
2022/04/14 04:18:30;;;;;;;4.18;0.70;;;23.90;69.90;;;;;;4115026;28;20050;-56
2022/04/14 04:20:36;;;;;;;7.90;0.90;;;24.00;69.80;;;;;;4099214;28;20058;-59
2022/04/14 04:22:45;;;;;;;1.20;0.45;;;24.00;69.80;;;;;;4120387;28;20075;-54
2022/04/14 04:24:53;;;;;;;8.52;0.90;;;24.10;69.50;;;;;;4122343;28;20115;-59
2022/04/14 04:26:59;;;;;;;3.97;0.75;;;24.10;69.40;;;;;;4121616;28;20054;-60
2022/04/14 04:29:01;;;;;;;3.47;0.60;;;24.10;69.40;;;;;;4096913;28;20094;-55
2022/04/14 04:31:04;;;;;;;2.40;0.50;;;24.10;69.40;;;;;;4114991;28;20390;-53
2022/04/14 04:33:06;;;;;;;0.52;0.35;;;24.20;69.40;;;;;;4121522;28;20602;-55
2022/04/14 04:35:09;;;;;;;4.78;0.63;;;24.30;69.20;;;;;;4117542;28;21539;-54
2022/04/14 04:37:12;;;;;;;2.40;0.70;;;24.30;69.00;;;;;;4115594;28;20662;-54
2022/04/14 04:39:14;;;;;;;1.23;0.68;;;24.30;69.10;;;;;;4115567;28;20050;-56
2022/04/14 04:41:16;;;;;;;3.72;0.50;;;24.30;69.10;;;;;;4121646;28;20670;-54
2022/04/14 04:43:18;;;;;;;2.60;0.70;;;24.20;69.10;;;;;;4119677;28;21141;-58
2022/04/14 04:45:20;;;;;;;4.32;0.80;;;24.20;69.20;;;;;;4119439;28;20931;-54
2022/04/14 04:47:22;;;;;;;3.38;0.52;;;24.20;69.30;;;;;;4104496;28;20064;-57
2022/04/14 04:49:24;;;;;;;2.08;0.50;;;24.20;69.40;;;;;;4122157;28;22390;-58
2022/04/14 04:51:26;;;;;;;1.40;0.40;;;24.20;69.30;;;;;;4119012;28;20080;-56
2022/04/14 04:53:28;;;;;;;1.02;0.43;;;24.30;69.20;;;;;;4120044;28;20558;-55
2022/04/14 04:55:31;;;;;;;1.15;0.40;;;24.40;69.00;;;;;;4124741;28;20119;-54
2022/04/14 04:57:33;;;;;;;0.73;0.40;;;24.50;68.70;;;;;;4117832;28;20053;-55
2022/04/14 04:59:35;;;;;;;1.50;0.40;;;24.60;68.60;;;;;;4119612;28;20079;-58
2022/04/14 05:01:37;;;;;;;1.33;0.50;;;24.60;68.40;;;;;;4122421;28;20128;-56
2022/04/14 05:03:40;;;;;;;0.70;0.40;;;24.70;68.30;;;;;;4126559;28;20058;-58
2022/04/14 05:05:42;;;;;;;0.52;0.35;;;24.80;68.10;;;;;;4124573;28;20588;-57
2022/04/14 05:07:44;;;;;;;0.82;0.40;;;24.80;67.90;;;;;;4121900;28;20535;-59
2022/04/14 05:09:46;;;;;;;0.40;0.30;;;24.90;67.80;;;;;;4127708;28;20058;-54
2022/04/14 05:11:48;;;;;;;1.02;0.35;;;25.00;67.70;;;;;;4122682;28;20053;-55
2022/04/14 05:13:50;;;;;;;0.93;0.50;;;25.00;67.60;;;;;;4121277;28;20058;-51
2022/04/14 05:15:52;;;;;;;1.77;0.40;;;25.00;67.70;;;;;;4127451;28;20083;-59
2022/04/14 05:17:54;;;;;;;0.45;0.40;;;25.00;67.70;;;;;;4130190;28;20049;-54
2022/04/14 05:19:56;;;;;;;1.00;0.60;;;25.00;67.80;;;;;;4129598;28;20046;-58
2022/04/14 05:22:01;;;;;;;2.38;0.40;;;25.00;67.90;;;;;;4135540;28;20061;-61
2022/04/14 05:24:04;;;;;;;1.60;0.30;;;25.10;67.90;;;;;;4118689;28;20054;-58
2022/04/14 05:26:06;;;;;;;1.70;0.30;;;25.10;67.90;;;;;;4130408;28;21657;-56
2022/04/14 05:28:08;;;;;;;1.90;0.50;;;25.10;67.70;;;;;;4120552;28;20866;-55
2022/04/14 05:30:11;;;;;;;0.47;0.40;;;25.10;67.80;;;;;;4117566;28;20317;-56
2022/04/14 05:32:15;;;;;;;1.83;0.63;;;25.10;67.70;;;;;;4121752;28;20318;-50
2022/04/14 05:34:17;;;;;;;2.65;0.60;;;25.10;67.70;;;;;;4132080;28;20099;-57
2022/04/14 05:36:25;;;;;;;1.05;0.50;;;25.20;67.60;;;;;;4118051;28;20081;-59
2022/04/14 05:38:46;;;;;;;1.58;0.60;;;25.20;67.60;;;;;;4102691;28;20062;-51
2022/04/14 05:40:58;;;;;;;2.80;0.93;;;25.20;67.60;;;;;;4092436;28;20074;-58
2022/04/14 05:43:00;;;;;;;1.30;0.40;;;25.20;67.50;;;;;;4091475;28;20498;-55
2022/04/14 05:45:02;;;;;;;3.47;0.82;;;25.20;67.60;;;;;;4097860;28;20418;-57
2022/04/14 05:47:05;;;;;;;4.50;0.93;;;25.20;67.10;;;;;;4101111;28;20565;-54
2022/04/14 05:49:07;;;;;;;2.00;0.32;;;25.30;67.50;;;;;;4096678;28;20164;-52
2022/04/14 05:51:09;;;;;;;3.07;0.40;;;25.30;67.60;;;;;;4091779;28;20081;-58
2022/04/14 05:53:13;;;;;;;0.88;0.57;;;25.30;67.50;;;;;;4095367;28;20054;-56
2022/04/14 05:55:15;;;;;;;0.70;0.40;;;25.30;67.50;;;;;;4115486;28;20847;-53
2022/04/14 05:57:18;;;;;;;6.53;0.85;;;25.30;67.50;;;;;;4093070;28;20120;-54
2022/04/14 05:59:20;;;;;;;1.05;0.50;;;25.30;67.40;;;;;;4093218;28;20127;-56
2022/04/14 06:01:25;;;;;;;3.58;0.40;;;25.40;67.50;;;;;;4097085;28;20085;-56
2022/04/14 06:03:27;;;;;;;2.47;0.47;;;25.40;67.40;;;;;;4104184;28;20508;-51
2022/04/14 06:05:31;;;;;;;5.03;0.65;;;25.40;67.00;;;;;;4106629;28;20085;-48
2022/04/14 06:07:33;;;;;;;0.77;0.40;;;25.40;66.70;;;;;;4124516;28;20054;-47
2022/04/14 06:09:35;;;;;;;3.80;0.65;;;25.40;67.10;;;;;;4139749;28;20699;-57
2022/04/14 06:11:37;;;;;;;5.53;0.85;;;25.40;67.20;;;;;;4126319;28;20153;-57
2022/04/14 06:13:40;;;;;;;7.53;0.77;;;25.30;67.00;;;;;;4128344;28;20045;-55
2022/04/14 06:15:43;;;;;;;4.00;0.55;;;25.40;66.90;;;;;;4128014;28;20061;-56
2022/04/14 06:17:45;;;;;;;2.17;0.63;;;25.30;66.90;;;;;;4094099;28;20053;-55
2022/04/14 06:19:47;;;;;;;0.93;0.43;;;25.40;67.00;;;;;;4084218;28;21510;-51
2022/04/14 06:21:50;;;;;;;1.77;0.40;;;25.30;67.00;;;;;;4087992;28;20054;-53
2022/04/14 06:23:52;;;;;;;3.80;0.50;;;25.40;66.90;;;;;;4092578;28;20072;-55
2022/04/14 06:25:55;;;;;;;1.33;0.57;;;25.40;67.60;;;;;;4093044;28;20058;-51
2022/04/14 06:27:56;;;;;;;;;;;25.40;66.90;;;;;;4093502;28;20053;-54
2022/04/14 06:29:59;;;;;;;4.50;0.93;;;25.40;67.00;;;;;;4089226;28;20003;-50
2022/04/14 06:32:01;;;;;;;1.88;0.57;;;25.30;66.90;;;;;;4096481;28;20062;-55
2022/04/14 06:34:05;;;;;;;3.45;0.60;;;25.40;66.90;;;;;;4090418;28;20057;-55
2022/04/14 06:36:07;;;;;;;1.15;0.50;;;25.30;66.90;;;;;;4084599;28;20612;-55
2022/04/14 06:38:10;;;;;;;1.67;0.68;;;25.40;66.90;;;;;;4104222;28;21169;-57
2022/04/14 06:40:12;;;;;;;0.70;0.45;;;25.40;66.80;;;;;;4092982;28;20061;-56
2022/04/14 06:42:14;;;;;;;0.52;0.52;;;25.40;67.00;;;;;;4085790;28;20062;-53
2022/04/14 06:44:16;;;;;;;0.45;0.38;;;25.40;66.90;;;;;;4089547;28;20062;-55
2022/04/14 06:46:19;;;;;;;0.73;0.40;;;25.40;66.90;;;;;;4094962;28;20054;-58
2022/04/14 06:48:21;;;;;;;1.30;0.40;;;25.40;66.80;;;;;;4096022;28;20093;-54
2022/04/14 06:50:24;;;;;;;0.82;0.47;;;25.40;66.80;;;;;;4103251;28;20185;-52
2022/04/14 06:52:26;;;;;;;1.90;0.52;;;25.40;66.80;;;;;;4089844;28;20623;-50
2022/04/14 06:54:28;;;;;;;0.25;0.20;;;25.40;66.70;;;;;;4097580;28;20934;-53
2022/04/14 06:56:30;;;;;;;1.17;0.38;;;25.40;66.80;;;;;;4086556;28;21038;-54
2022/04/14 06:58:32;;;;;;;3.30;0.68;;;25.40;66.80;;;;;;4084363;28;20176;-51
2022/04/14 07:00:34;;;;;;;2.55;0.50;;;25.40;66.70;;;;;;4088446;28;20082;-55
2022/04/14 07:02:49;;;;;;;0.95;0.40;;;25.40;66.70;;;;;;4091454;28;20042;-53
2022/04/14 07:04:51;;;;;;;2.72;0.45;;;25.40;66.70;;;;;;4108658;28;20088;-55
2022/04/14 07:06:54;;;;;;;4.32;0.93;;;25.30;66.60;;;;;;4088144;28;20132;-53
2022/04/14 07:08:56;;;;;;;2.97;0.60;;;25.40;66.70;;;;;;4084017;28;20081;-53
2022/04/14 07:10:59;;;;;;;2.75;0.60;;;25.30;66.60;;;;;;4097787;28;20058;-54
2022/04/14 07:13:01;;;;;;;3.58;0.90;;;25.30;66.50;;;;;;4104868;28;21347;-53
2022/04/14 07:15:04;;;;;;;2.80;0.50;;;25.30;66.40;;;;;;4103146;28;20060;-50
2022/04/14 07:17:07;;;;;;;0.85;0.38;;;25.30;66.40;;;;;;4087848;28;20480;-53
2022/04/14 07:19:09;;;;;;;2.80;0.63;;;25.20;66.30;;;;;;4093615;28;20062;-47
2022/04/14 07:21:11;;;;;;;4.07;0.40;;;25.20;66.30;;;;;;4086790;28;20050;-50
2022/04/14 07:23:13;;;;;;;2.22;0.30;;;25.20;66.30;;;;;;4104899;28;20620;-51
2022/04/14 07:25:15;;;;;;;2.17;0.43;;;25.20;66.40;;;;;;4081432;28;20059;-55
2022/04/14 07:27:20;;;;;;;2.00;0.38;;;25.20;66.50;;;;;;4110558;28;20137;-50
2022/04/14 07:29:22;;;;;;;1.17;0.30;;;25.10;66.30;;;;;;4089771;28;20066;-50
2022/04/14 07:31:24;;;;;;;0.68;0.57;;;25.10;66.40;;;;;;4092199;28;20771;-50
2022/04/14 07:33:26;;;;;;;0.60;0.35;;;25.10;66.40;;;;;;4115871;28;20222;-53
2022/04/14 07:35:29;;;;;;;0.93;0.30;;;25.10;66.40;;;;;;4112031;28;20049;-51
2022/04/14 07:37:32;;;;;;;0.30;0.30;;;25.10;66.40;;;;;;4109727;28;20191;-50
2022/04/14 07:39:33;;;;;;;;;;;25.00;66.30;;;;;;4100951;28;20058;-56
2022/04/14 07:41:35;;;;;;;1.85;0.22;;;25.00;66.40;;;;;;4116904;28;19941;-54
2022/04/14 07:43:38;;;;;;;0.30;0.30;;;25.00;66.40;;;;;;4112894;28;20140;-47
2022/04/14 07:45:42;;;;;;;0.45;0.30;;;25.00;66.40;;;;;;4096988;28;20919;-50
2022/04/14 07:47:45;;;;;;;1.38;0.30;;;24.90;66.40;;;;;;4101566;28;20050;-56
2022/04/14 07:49:48;;;;;;;0.40;0.28;;;24.90;66.40;;;;;;4111259;28;21171;-53
2022/04/14 07:51:50;;;;;;;0.20;0.20;;;24.90;66.50;;;;;;4074483;28;20746;-49
2022/04/14 07:53:53;;;;;;;0.38;0.30;;;24.90;66.50;;;;;;4109112;28;20140;-55
2022/04/14 07:55:55;;;;;;;;;;;24.80;66.50;;;;;;4099118;28;20061;-53
2022/04/14 07:58:00;;;;;;;0.43;0.22;;;24.80;66.50;;;;;;4109893;28;20177;-51
2022/04/14 08:00:05;;;;;;;0.28;0.28;;;24.80;66.50;;;;;;4079334;28;20054;-54
2022/04/14 08:02:08;;;;;;;0.22;0.22;;;24.80;66.50;;;;;;4094506;28;20576;-54
2022/04/14 08:04:11;;;;;;;0.80;0.40;;;24.80;66.50;;;;;;4117255;28;20049;-48
2022/04/14 08:06:14;;;;;;;2.15;0.30;;;24.80;66.50;;;;;;4109807;28;20602;-46
2022/04/14 08:08:17;;;;;;;;;;;24.80;66.20;;;;;;4109868;28;20945;-51
2022/04/14 08:10:20;;;;;;;1.35;0.52;;;24.80;66.70;;;;;;4113720;28;19929;-54
2022/04/14 08:12:23;;;;;;;0.20;0.20;;;24.70;66.60;;;;;;4116607;28;20856;-52
2022/04/14 08:14:24;;;;;;;;;;;24.70;66.60;;;;;;4108015;28;20061;-53
2022/04/14 08:16:27;;;;;;;0.20;0.20;;;24.70;66.70;;;;;;4089737;28;19921;-52
2022/04/14 08:18:29;;;;;;;0.20;0.20;;;24.70;66.70;;;;;;4112543;28;20436;-48
2022/04/14 08:20:47;;;;;;;0.47;0.30;;;24.70;66.70;;;;;;4091505;28;20101;-52
2022/04/14 08:22:54;;;;;;;0.82;0.40;;;24.70;66.80;;;;;;4115609;28;20088;-51
2022/04/14 08:24:56;;;;;;;0.20;0.20;;;24.60;66.70;;;;;;4111749;28;21676;-53
2022/04/14 08:26:58;;;;;;;0.95;0.50;;;24.60;66.70;;;;;;4108703;28;20108;-50
2022/04/14 08:29:00;;;;;;;0.40;0.30;;;24.60;66.70;;;;;;4092632;28;20050;-56
2022/04/14 08:31:03;;;;;;;0.40;0.40;;;24.60;66.80;;;;;;4091892;28;20132;-50
2022/04/14 08:33:08;;;;;;;1.35;0.40;;;24.60;66.80;;;;;;4085584;28;20085;-54
2022/04/14 08:35:12;;;;;;;0.45;0.43;;;24.60;66.80;;;;;;4091556;28;20145;-50
2022/04/14 08:37:14;;;;;;;0.68;0.40;;;24.60;66.80;;;;;;4105891;28;20116;-52
2022/04/14 08:39:16;;;;;;;0.38;0.30;;;24.50;66.80;;;;;;4098060;28;20562;-51
2022/04/14 08:41:24;;;;;;;0.68;0.38;;;24.50;66.80;;;;;;4091139;28;20046;-53
2022/04/14 08:43:33;;;;;;;0.40;0.40;;;24.50;66.90;;;;;;4091749;28;20090;-52
2022/04/14 08:45:43;;;;;;;0.47;0.35;;;24.50;66.80;;;;;;4090288;28;20177;-51
2022/04/14 08:47:46;;;;;;;0.32;0.30;;;24.50;66.90;;;;;;4105465;28;20061;-51
2022/04/14 08:49:49;;;;;;;0.47;0.47;;;24.40;66.80;;;;;;4099383;28;20062;-54
2022/04/14 08:51:52;;;;;;;0.55;0.40;;;24.50;66.90;;;;;;4110806;28;21715;-51
2022/04/14 08:53:54;;;;;;;0.57;0.45;;;24.40;66.80;;;;;;4088044;28;20100;-55
2022/04/14 08:55:58;;;;;;;0.40;0.32;;;24.40;66.80;;;;;;4108037;28;20057;-56
2022/04/14 08:58:01;;;;;;;0.45;0.40;;;24.40;66.80;;;;;;4115094;28;20045;-54
2022/04/14 09:00:06;;;;;;;0.50;0.43;;;24.40;66.90;;;;;;4087384;28;21306;-53
2022/04/14 09:02:17;;;;;;;0.68;0.50;;;24.40;66.90;;;;;;4104826;28;20054;-52
2022/04/14 09:04:20;;;;;;;0.52;0.50;;;24.40;66.90;;;;;;4088593;28;20778;-50
2022/04/14 09:06:23;;;;;;;0.88;0.80;;;24.30;66.90;;;;;;4090301;28;20568;-57
2022/04/14 09:08:26;;;;;;;0.40;0.40;;;24.40;66.50;;;;;;4113519;28;20116;-51
2022/04/14 09:10:28;;;;;;;0.60;0.50;;;24.30;66.90;;;;;;4085983;28;20836;-51
2022/04/14 09:12:31;;;;;;;1.63;0.70;;;24.30;67.00;;;;;;4090477;28;20836;-56
2022/04/14 09:14:37;;;;;;;0.40;0.40;;;24.30;67.00;;;;;;4098662;28;20105;-50
2022/04/14 09:16:39;;;;;;;0.65;0.50;;;24.30;67.10;;;;;;4097881;28;20074;-54
2022/04/14 09:18:41;;;;;;;0.70;0.60;;;24.30;67.00;;;;;;4094389;28;20545;-51
2022/04/14 09:20:48;;;;;;;0.98;0.63;;;24.30;67.00;;;;;;4105529;28;20049;-52
2022/04/14 09:23:18;;;;;;;0.40;0.40;;;24.30;67.10;;;;;;4095169;28;20083;-53
2022/04/14 09:25:22;;;;;;;0.93;0.57;;;24.20;67.10;;;;;;4087982;28;20575;-50
2022/04/14 09:27:34;;;;;;;0.75;0.50;;;24.20;67.10;;;;;;4106282;28;20057;-56
2022/04/14 09:29:46;;;;;;;0.60;0.55;;;24.20;67.10;;;;;;4106217;28;20050;-52
2022/04/14 09:31:54;;;;;;;0.90;0.70;;;24.20;67.10;;;;;;4108912;28;20236;-54
2022/04/14 09:33:57;;;;;;;1.58;0.73;;;24.20;67.10;;;;;;4092655;28;20114;-55
2022/04/14 09:36:18;;;;;;;1.65;0.93;;;24.20;67.20;;;;;;4120199;28;20103;-52
2022/04/14 09:38:20;;;;;;;0.85;0.70;;;24.20;67.20;;;;;;4093016;28;20160;-56
2022/04/14 09:40:33;;;;;;;1.80;0.70;;;24.20;67.20;;;;;;4083904;28;20525;-52
2022/04/14 09:42:41;;;;;;;0.97;0.67;;;24.20;67.20;;;;;;4098024;28;20066;-49
2022/04/14 09:44:44;;;;;;;1.92;1.35;;;24.10;67.20;;;;;;4097529;28;20046;-50
2022/04/14 09:46:48;;;;;;;0.73;0.68;;;24.10;67.30;;;;;;4100688;28;20054;-53
2022/04/14 09:49:08;;;;;;;1.13;0.70;;;24.10;67.30;;;;;;4128815;28;20550;-52
2022/04/14 09:51:26;;;;;;;1.13;0.75;;;24.10;67.30;;;;;;4106555;28;20373;-55
2022/04/14 09:53:45;;;;;;;1.25;1.00;;;24.10;67.30;;;;;;4109847;28;20104;-56
2022/04/14 09:55:52;;;;;;;1.00;0.75;;;24.10;67.40;;;;;;4103696;28;20153;-53
2022/04/14 09:58:17;;;;;;;1.55;0.95;;;24.10;67.40;;;;;;4098020;28;20084;-52
2022/04/14 10:00:40;;;;;;;1.48;1.10;;;24.00;67.40;;;;;;4119473;28;20081;-51
2022/04/14 10:02:42;;;;;;;1.35;0.88;;;24.00;67.40;;;;;;4116827;28;20046;-52
2022/04/14 10:04:47;;;;;;;2.20;1.08;;;24.00;67.40;;;;;;4106374;28;20058;-50
2022/04/14 10:07:12;;;;;;;1.20;0.80;;;24.00;67.40;;;;;;4108414;28;20050;-50
2022/04/14 10:09:31;;;;;;;1.58;0.90;;;24.00;67.50;;;;;;4100183;28;20054;-52
2022/04/14 10:11:35;;;;;;;1.23;1.00;;;24.00;67.40;;;;;;4094969;28;20061;-51
2022/04/14 10:13:39;;;;;;;1.17;0.88;;;24.00;67.40;;;;;;4079232;28;20046;-52
2022/04/14 10:15:44;;;;;;;1.23;0.90;;;24.00;67.50;;;;;;4100526;28;20082;-54
2022/04/14 10:17:46;;;;;;;1.17;0.85;;;24.00;67.50;;;;;;4101052;28;20116;-49
2022/04/14 10:19:49;;;;;;;1.20;0.80;;;23.90;67.40;;;;;;4095753;28;20057;-51
2022/04/14 10:21:52;;;;;;;1.35;0.93;;;23.90;67.50;;;;;;4092030;28;20319;-59
2022/04/14 10:23:55;;;;;;;1.00;0.70;;;23.90;67.50;;;;;;4114710;28;20049;-50
2022/04/14 10:25:58;;;;;;;1.00;0.90;;;23.90;67.60;;;;;;4094739;28;20126;-50
2022/04/14 10:28:01;;;;;;;0.80;0.80;;;23.90;67.60;;;;;;4089717;28;20683;-50
2022/04/14 10:30:05;;;;;;;2.08;0.90;;;23.90;67.50;;;;;;4094737;28;20540;-53
2022/04/14 10:32:08;;;;;;;1.33;0.95;;;23.80;67.50;;;;;;4080777;28;20069;-55
2022/04/14 10:34:15;;;;;;;1.80;1.00;;;23.80;67.60;;;;;;4090493;28;20049;-54
2022/04/14 10:36:17;;;;;;;0.93;0.70;;;23.80;67.70;;;;;;4090103;28;20054;-56
2022/04/14 10:38:34;;;;;;;1.50;1.00;;;23.80;67.50;;;;;;4111023;28;20416;-54
2022/04/14 10:40:37;;;;;;;1.27;0.98;;;23.80;67.70;;;;;;4089015;28;21503;-56
2022/04/14 10:42:46;;;;;;;1.23;0.70;;;23.80;67.60;;;;;;4095740;28;20064;-53
2022/04/14 10:44:50;;;;;;;1.20;0.93;;;23.80;67.70;;;;;;4096819;28;20919;-51
2022/04/14 10:46:52;;;;;;;1.00;0.90;;;23.80;67.70;;;;;;4090170;28;20612;-53
2022/04/14 10:49:13;;;;;;;0.67;0.67;;;23.80;67.50;;;;;;4090747;28;20054;-53